Time;durP1;ratioP1;P1;durP2;ratioP2;P2;SDS_P1;SDS_P2;PMS_P1;PMS_P2;Temp;Humidity;BMP_temperature;BMP_pressure;BME280_temperature;BME280_humidity;BME280_pressure;Samples;Min_cycle;Max_cycle;Signal;HPM_P1;HPM_P2
2021/05/12 00:07:15;;;;;;;0.50;0.50;;;12.40;99.90;;;;;;20808634;23;20229;-80
2021/05/12 00:17:20;;;;;;;0.20;0.00;;;12.40;99.90;;;;;;20781446;28;20651;-78
2021/05/12 00:27:24;;;;;;;0.20;0.10;;;12.40;99.90;;;;;;20779972;28;20194;-78
2021/05/12 00:37:27;;;;;;;0.20;0.10;;;12.30;99.90;;;;;;20778904;28;20237;-77
2021/05/12 00:47:33;;;;;;;0.20;0.10;;;12.40;99.90;;;;;;20777894;28;20194;-77
2021/05/12 00:57:36;;;;;;;0.20;0.10;;;12.50;99.90;;;;;;20778950;28;20495;-77
2021/05/12 01:07:40;;;;;;;0.20;0.10;;;12.50;99.90;;;;;;20802141;28;20288;-77
2021/05/12 01:17:44;;;;;;;0.30;0.27;;;12.40;99.90;;;;;;20807312;28;20230;-77
2021/05/12 01:27:47;;;;;;;0.20;0.10;;;12.50;99.90;;;;;;20776896;28;20695;-77
2021/05/12 01:37:50;;;;;;;0.20;0.20;;;12.50;99.90;;;;;;20779426;28;20492;-78
2021/05/12 01:47:55;;;;;;;0.30;0.20;;;12.40;99.90;;;;;;20790898;28;20682;-79
2021/05/12 01:57:58;;;;;;;0.37;0.37;;;12.50;99.90;;;;;;20792972;28;20320;-78
2021/05/12 02:08:04;;;;;;;0.20;0.10;;;12.40;99.90;;;;;;20789141;28;20226;-77
2021/05/12 02:18:08;;;;;;;0.20;0.10;;;12.40;99.90;;;;;;20788967;28;20232;-76
2021/05/12 02:28:13;;;;;;;0.20;0.10;;;12.50;99.90;;;;;;20789874;28;20341;-76
2021/05/12 02:38:17;;;;;;;0.20;0.10;;;12.60;99.90;;;;;;20785514;28;20240;-77
2021/05/12 02:48:21;;;;;;;0.20;0.10;;;12.40;99.90;;;;;;20786910;28;20214;-77
2021/05/12 02:58:24;;;;;;;0.20;0.10;;;12.10;99.90;;;;;;20784680;28;20566;-76
2021/05/12 03:08:28;;;;;;;0.20;0.10;;;11.80;99.90;;;;;;20783261;28;20218;-77
2021/05/12 03:18:31;;;;;;;0.20;0.10;;;11.60;99.90;;;;;;20783863;28;20817;-76
2021/05/12 03:28:35;;;;;;;0.20;0.10;;;11.70;99.90;;;;;;20781633;28;20202;-77
2021/05/12 03:38:38;;;;;;;0.20;0.10;;;11.80;99.90;;;;;;20782104;28;20713;-77
2021/05/12 03:48:44;;;;;;;1.20;1.13;;;11.70;99.90;;;;;;20780961;28;20201;-77
2021/05/12 03:58:47;;;;;;;0.20;0.10;;;11.50;99.90;;;;;;20779063;28;20226;-77
2021/05/12 04:08:51;;;;;;;0.77;0.77;;;11.40;99.90;;;;;;20791143;22;20252;-70
2021/05/12 04:18:54;;;;;;;0.20;0.10;;;11.70;99.90;;;;;;20776948;28;20217;-69
2021/05/12 04:28:58;;;;;;;0.20;0.10;;;11.80;99.90;;;;;;20776136;28;20190;-69
2021/05/12 04:39:01;;;;;;;0.20;0.20;;;12.20;99.90;;;;;;20775231;28;20311;-69
2021/05/12 04:49:07;;;;;;;0.20;0.10;;;12.30;99.90;;;;;;20775475;28;20190;-69
2021/05/12 04:59:10;;;;;;;0.33;0.33;;;12.30;99.90;;;;;;20773152;28;20230;-68
2021/05/12 05:09:14;;;;;;;0.20;0.10;;;12.40;99.90;;;;;;20772839;28;20240;-68
2021/05/12 05:19:17;;;;;;;0.30;0.30;;;12.50;99.90;;;;;;20770232;28;20264;-70
2021/05/12 05:29:21;;;;;;;0.20;0.17;;;12.80;99.90;;;;;;20771825;28;21035;-70
2021/05/12 05:39:24;;;;;;;0.40;0.40;;;12.90;99.90;;;;;;20767834;28;20448;-70
2021/05/12 05:49:28;;;;;;;0.20;0.20;;;13.40;99.90;;;;;;20769595;28;20730;-69
2021/05/12 05:59:31;;;;;;;0.20;0.20;;;13.70;99.90;;;;;;20766653;28;20294;-68
2021/05/12 06:09:35;;;;;;;0.20;0.10;;;14.30;99.90;;;;;;20767687;28;20316;-71
2021/05/12 06:19:38;;;;;;;0.20;0.10;;;14.40;99.90;;;;;;20768599;28;20226;-71
2021/05/12 06:29:43;;;;;;;0.40;0.40;;;14.70;99.90;;;;;;20769024;28;20258;-70
2021/05/12 06:39:46;;;;;;;0.20;0.20;;;15.30;99.90;;;;;;20780968;28;20631;-69
2021/05/12 06:49:50;;;;;;;0.20;0.10;;;15.70;99.90;;;;;;20782477;28;20293;-68
2021/05/12 06:59:53;;;;;;;2.00;0.47;;;16.20;99.90;;;;;;20778283;28;20221;-72
2021/05/12 07:10:17;;;;;;;0.70;0.70;;;16.20;99.90;;;;;;20771906;28;20527;-66
2021/05/12 07:20:20;;;;;;;0.40;0.40;;;16.40;99.90;;;;;;20779907;28;20288;-75
2021/05/12 07:30:26;;;;;;;1.63;0.50;;;16.40;99.90;;;;;;20776315;28;20209;-67
2021/05/12 07:40:32;;;;;;;0.40;0.40;;;16.60;99.90;;;;;;20772753;28;20274;-70
2021/05/12 07:50:36;;;;;;;1.07;0.63;;;17.00;99.90;;;;;;20770057;28;20199;-69
2021/05/12 08:00:42;;;;;;;0.20;0.10;;;17.20;99.90;;;;;;20776345;28;20283;-69
2021/05/12 08:10:47;;;;;;;0.20;0.20;;;17.60;99.90;;;;;;20776916;28;20204;-71
2021/05/12 08:20:50;;;;;;;0.40;0.40;;;17.70;99.90;;;;;;20777571;28;20245;-70
2021/05/12 08:30:56;;;;;;;0.50;0.20;;;17.80;99.90;;;;;;20775626;28;20198;-69
2021/05/12 08:41:02;;;;;;;0.33;0.23;;;17.80;99.90;;;;;;20772199;28;20695;-71
2021/05/12 08:51:07;;;;;;;0.40;0.40;;;17.20;99.90;;;;;;20772227;28;20631;-70
2021/05/12 09:01:10;;;;;;;0.20;0.10;;;17.20;99.90;;;;;;20771405;28;20848;-68
2021/05/12 09:11:15;;;;;;;0.40;0.40;;;17.60;99.90;;;;;;20772762;28;20283;-69
2021/05/12 09:21:18;;;;;;;1.80;0.67;;;18.00;99.90;;;;;;20756968;28;20244;-69
2021/05/12 09:31:23;;;;;;;0.60;0.30;;;18.00;99.90;;;;;;20694876;28;20198;-68
2021/05/12 09:41:33;;;;;;;8.53;1.13;;;19.00;99.90;;;;;;20744496;28;20221;-70
2021/05/12 09:51:38;;;;;;;0.30;0.23;;;18.70;99.90;;;;;;20769324;28;20193;-68
2021/05/12 10:01:47;;;;;;;5.43;0.37;;;18.60;99.90;;;;;;20766091;28;20268;-67
2021/05/12 10:12:09;;;;;;;2.77;1.83;;;18.60;99.90;;;;;;20784421;28;20206;-68
2021/05/12 10:22:12;;;;;;;7.20;0.50;;;19.00;99.90;;;;;;20779660;28;20232;-69
2021/05/12 10:32:19;;;;;;;1.43;0.40;;;18.70;99.90;;;;;;20782628;28;20564;-69
2021/05/12 10:43:11;;;;;;;0.67;0.20;;;18.80;99.90;;;;;;20782266;28;20586;-67
2021/05/12 10:53:18;;;;;;;0.30;0.27;;;19.50;99.90;;;;;;20770571;28;20578;-68
2021/05/12 11:03:21;;;;;;;2.27;0.40;;;20.80;99.90;;;;;;20779363;28;20225;-67
2021/05/12 11:13:27;;;;;;;0.30;0.30;;;20.60;99.90;;;;;;20778090;28;20233;-67
2021/05/12 11:23:30;;;;;;;0.37;0.30;;;20.20;99.90;;;;;;20778400;28;20266;-68
2021/05/12 11:33:36;;;;;;;3.15;0.75;;;21.60;99.90;;;;;;20776998;28;20319;-66
2021/05/12 11:43:41;;;;;;;0.20;0.10;;;22.10;99.90;;;;;;20777875;28;20229;-68
2021/05/12 11:53:48;;;;;;;0.40;0.40;;;22.70;99.90;;;;;;20779259;28;20234;-69
2021/05/12 12:03:56;;;;;;;2.83;0.63;;;21.50;99.90;;;;;;20774441;28;20225;-69
2021/05/12 12:14:02;;;;;;;0.20;0.20;;;24.50;99.90;;;;;;20776372;28;20697;-69
2021/05/12 12:24:07;;;;;;;0.50;0.20;;;25.20;99.90;;;;;;20771032;28;20243;-67
2021/05/12 12:34:20;;;;;;;1.48;0.30;;;26.30;99.90;;;;;;20768426;28;20249;-65
2021/05/12 12:44:33;;;;;;;0.20;0.10;;;25.80;99.90;;;;;;20771410;28;20212;-67
2021/05/12 12:54:44;;;;;;;7.22;0.38;;;26.60;99.90;;;;;;20775073;28;20249;-68
2021/05/12 13:05:10;;;;;;;8.68;0.57;;;26.70;99.90;;;;;;20772068;28;20679;-68
2021/05/12 13:15:24;;;;;;;0.73;0.63;;;28.00;99.90;;;;;;20772468;28;20228;-66
2021/05/12 13:25:28;;;;;;;0.60;0.38;;;28.40;99.90;;;;;;20770694;28;20279;-66
2021/05/12 13:35:32;;;;;;;0.30;0.20;;;28.50;99.90;;;;;;20787415;28;20225;-66
2021/05/12 13:45:35;;;;;;;0.40;0.40;;;28.30;99.90;;;;;;20783867;28;20197;-66
2021/05/12 13:55:49;;;;;;;1.50;0.32;;;26.40;99.90;;;;;;20785762;28;20229;-65
2021/05/12 14:05:53;;;;;;;0.30;0.20;;;27.90;99.90;;;;;;20784848;28;20248;-67
2021/05/12 14:16:30;;;;;;;0.50;0.50;;;29.40;99.90;;;;;;20783759;28;20261;-69
2021/05/12 14:26:34;;;;;;;2.20;0.47;;;28.70;99.90;;;;;;20781694;28;20197;-66
2021/05/12 14:36:39;;;;;;;1.20;0.32;;;27.70;99.90;;;;;;20780352;28;20222;-66
2021/05/12 14:46:42;;;;;;;1.00;0.50;;;27.20;99.90;;;;;;20782235;28;20198;-68
2021/05/12 14:56:49;;;;;;;3.05;0.35;;;26.60;99.90;;;;;;20778942;28;20225;-65
2021/05/12 15:06:53;;;;;;;0.70;0.47;;;27.40;99.90;;;;;;20777940;28;20240;-70
2021/05/12 15:16:57;;;;;;;4.03;1.15;;;25.10;99.90;;;;;;20777728;28;20233;-67
2021/05/12 15:27:00;;;;;;;0.70;0.20;;;25.30;99.90;;;;;;20777772;28;20220;-69
2021/05/12 15:37:04;;;;;;;5.05;0.63;;;24.30;99.90;;;;;;20775691;28;20226;-72
2021/05/12 15:47:07;;;;;;;2.67;0.43;;;23.50;99.90;;;;;;20775040;28;20658;-69
2021/05/12 15:57:11;;;;;;;0.35;0.10;;;25.90;99.90;;;;;;20772943;28;20346;-70
2021/05/12 16:07:15;;;;;;;0.30;0.30;;;27.80;99.90;;;;;;20772077;28;20230;-68
2021/05/12 16:17:20;;;;;;;0.50;0.28;;;27.20;99.90;;;;;;20771719;28;20226;-65
2021/05/12 16:27:24;;;;;;;0.20;0.10;;;25.90;99.90;;;;;;20772136;28;20193;-68
2021/05/12 16:37:29;;;;;;;0.20;0.10;;;25.30;99.90;;;;;;20774331;28;20226;-69
2021/05/12 16:47:32;;;;;;;0.20;0.17;;;25.30;99.90;;;;;;20772812;28;20202;-66
2021/05/12 16:57:36;;;;;;;0.30;0.13;;;26.10;99.90;;;;;;20772444;28;20592;-68
2021/05/12 17:07:39;;;;;;;0.30;0.20;;;25.20;99.90;;;;;;20771634;28;20221;-67
2021/05/12 17:17:43;;;;;;;0.47;0.25;;;26.30;99.90;;;;;;20770065;28;20232;-68
2021/05/12 17:27:57;;;;;;;10.25;0.85;;;26.80;99.90;;;;;;20773728;28;20737;-70
2021/05/12 17:38:03;;;;;;;0.50;0.37;;;23.30;99.90;;;;;;20769538;28;20217;-69
2021/05/12 17:48:07;;;;;;;1.33;1.17;;;23.90;99.90;;;;;;20769171;28;20568;-69
2021/05/12 17:58:12;;;;;;;2.40;1.00;;;23.10;99.90;;;;;;20769352;28;20222;-70
2021/05/12 18:08:17;;;;;;;0.97;0.33;;;20.80;99.90;;;;;;20769623;28;20940;-70
2021/05/12 18:18:21;;;;;;;0.40;0.40;;;20.50;99.90;;;;;;20767533;28;20236;-72
2021/05/12 18:28:24;;;;;;;1.80;0.80;;;20.90;99.90;;;;;;20777584;28;20202;-72
2021/05/12 18:38:31;;;;;;;0.33;0.33;;;21.60;99.90;;;;;;20780425;28;20785;-70
2021/05/12 18:48:34;;;;;;;0.23;0.13;;;21.10;99.90;;;;;;20785837;28;20213;-69
2021/05/12 18:58:38;;;;;;;3.73;0.53;;;21.40;99.90;;;;;;20781621;28;20222;-68
2021/05/12 19:08:45;;;;;;;0.50;0.50;;;20.10;99.90;;;;;;20781776;28;20290;-72
2021/05/12 19:19:05;;;;;;;0.20;0.20;;;19.70;99.90;;;;;;20738990;28;20692;-70
2021/05/12 19:29:23;;;;;;;0.20;0.20;;;19.60;99.90;;;;;;20779676;28;20237;-70
2021/05/12 19:49:49;;;;;;;0.47;0.20;;;19.40;99.90;;;;;;20777496;28;20198;-70
2021/05/12 19:59:53;;;;;;;0.50;0.43;;;19.10;99.90;;;;;;20777383;28;20588;-70
2021/05/12 20:10:19;;;;;;;0.43;0.20;;;19.00;99.90;;;;;;20773242;28;20282;-71
2021/05/12 20:20:26;;;;;;;0.40;0.40;;;18.90;99.90;;;;;;20773397;28;20591;-70
2021/05/12 20:30:31;;;;;;;0.67;0.30;;;18.90;99.90;;;;;;20776693;28;20591;-71
2021/05/12 20:40:36;;;;;;;0.73;0.70;;;18.80;99.90;;;;;;20776505;28;20229;-71
2021/05/12 20:50:42;;;;;;;0.30;0.30;;;18.50;99.90;;;;;;20775198;28;20198;-73
2021/05/12 21:00:46;;;;;;;0.40;0.30;;;18.30;99.90;;;;;;20772833;28;20232;-70
2021/05/12 21:10:50;;;;;;;4.70;0.60;;;18.20;99.90;;;;;;20770504;28;20607;-70
2021/05/12 21:21:02;;;;;;;0.50;0.50;;;18.50;99.90;;;;;;20768788;28;20222;-72
2021/05/12 21:31:06;;;;;;;0.30;0.20;;;18.30;99.90;;;;;;20768543;28;20190;-71
2021/05/12 21:41:10;;;;;;;0.30;0.20;;;18.20;99.90;;;;;;20769139;28;20255;-70
2021/05/12 21:51:14;;;;;;;0.60;0.40;;;18.00;99.90;;;;;;20768273;28;20516;-71
2021/05/12 22:01:19;;;;;;;0.20;0.10;;;18.20;99.90;;;;;;20774840;28;20722;-71
2021/05/12 22:32:07;;;;;;;0.20;0.10;;;17.70;99.90;;;;;;20785252;28;20202;-69
2021/05/12 22:42:11;;;;;;;1.90;0.27;;;17.60;99.90;;;;;;20784603;28;20603;-69
2021/05/12 22:52:16;;;;;;;0.40;0.40;;;17.50;99.90;;;;;;20783345;28;20566;-69
2021/05/12 23:02:20;;;;;;;0.40;0.20;;;17.50;99.90;;;;;;20760217;28;20408;-69
2021/05/12 23:12:23;;;;;;;0.20;0.10;;;17.40;99.90;;;;;;20779483;28;20198;-66
2021/05/12 23:22:29;;;;;;;0.20;0.10;;;17.40;99.90;;;;;;20777516;28;20923;-68
2021/05/12 23:32:33;;;;;;;1.13;0.40;;;17.00;99.90;;;;;;20775941;28;20202;-68
2021/05/12 23:42:42;;;;;;;0.20;0.10;;;16.80;99.90;;;;;;20780754;28;20671;-69
2021/05/12 23:52:45;;;;;;;0.20;0.10;;;16.70;99.90;;;;;;20775119;28;20382;-68
